Time;durP1;ratioP1;P1;durP2;ratioP2;P2;SDS_P1;SDS_P2;PMS_P1;PMS_P2;Temp;Humidity;BMP_temperature;BMP_pressure;BME280_temperature;BME280_humidity;BME280_pressure;Samples;Min_cycle;Max_cycle;Signal;HPM_P1;HPM_P2
2022/06/21 00:00:01;;;;;;;3.55;0.80;;;;;;;19.37;60.25;96191.69;5048117;28;20236;-90
2022/06/21 00:02:28;;;;;;;1.88;0.75;;;;;;;19.23;59.56;96195.63;5051971;28;20725;-90
2022/06/21 00:04:56;;;;;;;0.70;0.70;;;;;;;19.45;56.97;96197.53;5047736;28;20209;-90
2022/06/21 00:07:26;;;;;;;0.77;0.77;;;;;;;19.35;58.33;96186.59;5047570;28;20655;-91
2022/06/21 00:09:53;;;;;;;1.00;0.55;;;;;;;19.28;58.25;96193.91;5046951;28;20209;-90
2022/06/21 00:12:21;;;;;;;1.00;0.68;;;;;;;19.30;57.57;96194.50;5050072;28;20223;-92
2022/06/21 00:14:48;;;;;;;0.95;0.60;;;;;;;19.14;58.65;96189.84;5046813;28;20595;-90
2022/06/21 00:17:17;;;;;;;1.00;0.63;;;;;;;19.21;58.59;96193.19;5047688;28;20260;-91
2022/06/21 00:19:45;;;;;;;2.35;0.73;;;;;;;18.96;59.38;96191.72;5047455;28;20236;-90
2022/06/21 00:22:16;;;;;;;3.08;0.60;;;;;;;19.37;58.71;96195.19;5046611;28;20232;-90
2022/06/21 00:24:43;;;;;;;0.80;0.70;;;;;;;19.10;58.83;96199.34;5045449;28;20578;-90
2022/06/21 00:27:13;;;;;;;1.13;0.70;;;;;;;19.32;58.35;96194.25;5045741;28;20223;-90
2022/06/21 00:29:39;;;;;;;0.80;0.70;;;;;;;19.13;59.62;96190.03;5046833;28;20209;-89
2022/06/21 00:32:10;;;;;;;2.72;0.82;;;;;;;18.97;60.64;96199.50;5046373;28;20389;-90
2022/06/21 00:34:36;;;;;;;0.95;0.70;;;;;;;18.93;61.62;96197.53;5044748;28;20209;-90
2022/06/21 00:37:04;;;;;;;0.95;0.70;;;;;;;18.85;61.38;96194.38;5045194;28;20201;-90
2022/06/21 00:39:32;;;;;;;1.60;0.70;;;;;;;18.86;61.39;96198.69;5044433;28;20205;-90
2022/06/21 00:42:05;;;;;;;1.25;0.80;;;;;;;18.79;61.32;96193.44;5046324;28;20235;-89
2022/06/21 00:44:37;;;;;;;1.45;0.80;;;;;;;18.57;61.56;96192.34;5047295;28;20201;-90
2022/06/21 00:47:07;;;;;;;1.08;0.65;;;;;;;18.63;62.09;96185.28;5045259;28;20208;-89
2022/06/21 00:49:40;;;;;;;0.98;0.68;;;;;;;18.45;62.98;96194.13;5044944;28;20235;-89
2022/06/21 00:52:14;;;;;;;1.55;0.85;;;;;;;18.49;63.63;96205.19;5045142;28;20224;-89
2022/06/21 00:54:50;;;;;;;0.90;0.63;;;;;;;18.67;64.36;96199.78;5044734;28;20576;-90
2022/06/21 00:57:21;;;;;;;0.95;0.60;;;;;;;18.57;64.48;96197.69;5045121;28;20585;-90
2022/06/21 00:59:50;;;;;;;2.22;0.77;;;;;;;18.39;65.41;96188.88;5044273;28;20300;-90
2022/06/21 01:02:19;;;;;;;0.85;0.80;;;;;;;18.31;66.33;96196.41;5044050;28;20221;-90
2022/06/21 01:04:50;;;;;;;1.02;0.70;;;;;;;18.26;66.54;96193.59;5044629;28;20201;-90
2022/06/21 01:07:17;;;;;;;1.75;0.85;;;;;;;18.21;66.39;96196.94;5044203;28;21287;-90
2022/06/21 01:09:50;;;;;;;2.53;0.70;;;;;;;18.25;66.63;96194.63;5044778;28;20197;-90
2022/06/21 01:12:20;;;;;;;1.23;0.77;;;;;;;18.06;67.00;96188.50;5044210;28;20225;-90
2022/06/21 01:14:50;;;;;;;1.45;0.70;;;;;;;18.06;66.56;96187.66;5043795;28;20212;-89
2022/06/21 01:17:19;;;;;;;1.48;0.88;;;;;;;17.73;68.11;96182.72;5044448;28;20219;-91
2022/06/21 01:19:49;;;;;;;2.45;0.88;;;;;;;17.91;67.52;96179.25;5044504;28;20290;-90
2022/06/21 01:22:29;;;;;;;1.55;0.90;;;;;;;17.78;67.61;96174.88;5044108;28;20686;-89
2022/06/21 01:25:10;;;;;;;1.38;0.80;;;;;;;17.74;67.89;96181.69;5044516;28;20204;-90
2022/06/21 01:27:39;;;;;;;1.38;1.00;;;;;;;17.73;67.67;96172.06;5043823;28;20205;-90
2022/06/21 01:30:08;;;;;;;1.50;0.77;;;;;;;17.65;68.05;96182.19;5044051;28;20231;-90
2022/06/21 01:32:35;;;;;;;1.73;0.70;;;;;;;17.53;67.52;96172.50;5043873;28;20501;-89
2022/06/21 01:35:09;;;;;;;0.95;0.73;;;;;;;17.54;67.72;96166.94;5044160;28;20289;-89
2022/06/21 01:37:38;;;;;;;1.10;0.90;;;;;;;17.37;68.76;96179.19;5043491;28;20208;-90
2022/06/21 01:40:13;;;;;;;1.67;0.70;;;;;;;17.64;68.16;96177.09;5044331;28;20201;-90
2022/06/21 01:42:44;;;;;;;2.22;0.80;;;;;;;17.58;67.91;96164.63;5043682;28;20232;-89
2022/06/21 01:45:16;;;;;;;2.33;1.02;;;;;;;17.58;69.10;96161.97;5043538;28;20197;-89
2022/06/21 01:47:47;;;;;;;5.10;1.02;;;;;;;17.60;67.66;96157.25;5043259;28;20216;-90
2022/06/21 01:50:14;;;;;;;1.35;0.90;;;;;;;17.46;68.31;96156.56;5043516;28;20205;-90
2022/06/21 01:52:44;;;;;;;2.25;1.10;;;;;;;17.67;68.11;96150.81;5043780;28;20237;-89
2022/06/21 01:55:17;;;;;;;1.85;0.90;;;;;;;17.50;69.01;96154.28;5044271;28;20211;-91
2022/06/21 01:57:48;;;;;;;1.33;0.90;;;;;;;17.42;69.55;96154.56;5044225;28;20209;-89
2022/06/21 02:00:15;;;;;;;2.05;1.25;;;;;;;17.20;69.75;96154.13;5044552;28;20244;-90
2022/06/21 02:02:45;;;;;;;2.78;0.80;;;;;;;17.40;69.27;96146.81;5043567;28;20217;-89
2022/06/21 02:05:17;;;;;;;0.95;0.80;;;;;;;17.31;68.99;96136.66;5044341;28;20223;-90
2022/06/21 02:07:47;;;;;;;1.40;0.88;;;;;;;17.22;70.02;96136.09;5047462;28;20206;-89
2022/06/21 02:10:20;;;;;;;1.33;0.93;;;;;;;16.96;71.16;96130.19;5047850;28;20213;-90
2022/06/21 02:12:52;;;;;;;1.75;1.10;;;;;;;16.99;71.15;96124.44;5047881;28;20229;-90
2022/06/21 02:15:25;;;;;;;5.68;1.20;;;;;;;16.95;70.81;96133.09;5048393;28;20205;-89
2022/06/21 02:17:54;;;;;;;1.88;1.08;;;;;;;16.92;70.90;96129.00;5047555;28;20577;-89
2022/06/21 02:20:24;;;;;;;4.68;0.90;;;;;;;17.03;70.95;96124.81;5048077;28;20264;-90
2022/06/21 02:22:51;;;;;;;1.45;1.00;;;;;;;16.86;71.80;96121.09;5047640;28;20318;-89
2022/06/21 02:25:21;;;;;;;1.58;1.00;;;;;;;16.96;71.66;96124.88;5047701;28;20645;-90
2022/06/21 02:27:50;;;;;;;5.82;1.13;;;;;;;17.08;70.33;96114.31;5047238;28;20212;-90
2022/06/21 02:30:20;;;;;;;3.60;1.00;;;;;;;16.97;70.57;96125.69;5047368;28;20201;-90
2022/06/21 02:32:47;;;;;;;3.53;0.98;;;;;;;16.84;70.90;96133.78;5046641;28;20228;-90
2022/06/21 02:35:21;;;;;;;2.05;1.10;;;;;;;16.49;72.73;96141.41;5047701;28;20210;-90
2022/06/21 02:37:51;;;;;;;4.40;1.05;;;;;;;16.31;74.16;96140.53;5046445;28;20205;-89
2022/06/21 02:40:21;;;;;;;1.70;1.08;;;;;;;16.60;73.38;96135.41;5046158;28;20205;-89
2022/06/21 02:43:10;;;;;;;2.05;1.15;;;;;;;16.84;72.02;96136.44;5047502;28;20227;-90
2022/06/21 02:45:45;;;;;;;2.88;1.40;;;;;;;16.67;72.83;96130.03;5047480;28;20680;-89
2022/06/21 02:48:18;;;;;;;3.42;1.27;;;;;;;16.83;72.14;96134.84;5047176;28;20212;-90
2022/06/21 02:50:49;;;;;;;1.10;1.00;;;;;;;16.96;71.11;96129.41;5047177;28;20205;-89
2022/06/21 02:53:21;;;;;;;2.28;1.30;;;;;;;16.54;73.44;96144.25;5046618;28;20240;-89
2022/06/21 02:55:54;;;;;;;2.58;0.98;;;;;;;16.57;73.38;96140.34;5046552;28;20793;-90
2022/06/21 02:58:28;;;;;;;2.58;1.10;;;;;;;16.69;72.73;96135.97;5047171;28;20227;-90
2022/06/21 03:00:55;;;;;;;1.98;1.35;;;;;;;16.24;74.47;96145.06;5046844;28;20228;-89
2022/06/21 03:03:26;;;;;;;1.77;1.20;;;;;;;16.68;73.21;96147.66;5046772;28;20232;-90
2022/06/21 03:05:58;;;;;;;2.25;1.10;;;;;;;16.68;73.94;96152.97;5046462;28;20197;-90
2022/06/21 03:08:26;;;;;;;2.20;1.50;;;;;;;16.47;74.58;96150.69;5046859;28;20214;-89
2022/06/21 03:10:53;;;;;;;3.28;1.00;;;;;;;16.71;73.79;96152.53;5047044;28;20225;-89
2022/06/21 03:13:24;;;;;;;3.72;1.40;;;;;;;16.70;73.77;96149.06;5045472;28;20227;-89
2022/06/21 03:15:56;;;;;;;1.58;1.38;;;;;;;16.63;73.12;96155.47;5046027;28;20205;-91
2022/06/21 03:18:25;;;;;;;1.60;1.20;;;;;;;16.25;75.62;96146.66;5046287;28;20848;-89
2022/06/21 03:20:53;;;;;;;3.60;1.30;;;;;;;16.21;75.85;96150.78;5045913;28;20229;-89
2022/06/21 03:23:21;;;;;;;1.35;1.10;;;;;;;16.45;73.61;96160.69;5046148;28;20728;-90
2022/06/21 03:25:51;;;;;;;1.60;1.27;;;;;;;16.47;73.47;96149.84;5046791;28;20201;-90
2022/06/21 03:28:31;;;;;;;2.65;1.30;;;;;;;16.30;74.17;96151.38;5046693;28;20229;-89
2022/06/21 03:31:04;;;;;;;2.72;1.20;;;;;;;16.16;74.69;96155.13;5046537;28;20197;-90
2022/06/21 03:33:33;;;;;;;2.45;1.60;;;;;;;16.13;74.14;96159.00;5046514;28;20236;-90
2022/06/21 03:36:00;;;;;;;1.50;1.20;;;;;;;16.13;75.04;96139.59;5047173;28;20200;-92
2022/06/21 03:38:27;;;;;;;3.58;1.45;;;;;;;16.15;74.61;96141.03;5045122;28;20209;-90
2022/06/21 03:43:44;;;;;;;4.55;1.58;;;;;;;16.12;73.68;96136.09;5046348;28;20604;-90
2022/06/21 03:46:16;;;;;;;4.38;1.60;;;;;;;16.35;71.58;96131.09;5046775;28;20206;-90
2022/06/21 03:48:48;;;;;;;5.20;1.40;;;;;;;16.39;72.81;96121.66;5046191;28;20497;-90
2022/06/21 03:51:17;;;;;;;3.30;1.50;;;;;;;16.33;72.88;96117.22;5046348;28;20213;-91
2022/06/21 03:53:49;;;;;;;4.55;1.45;;;;;;;16.17;72.88;96122.19;5045579;28;20225;-90
2022/06/21 03:56:21;;;;;;;3.45;1.50;;;;;;;16.45;73.28;96117.34;5046626;28;20572;-90
2022/06/21 03:58:56;;;;;;;2.20;1.38;;;;;;;16.60;71.99;96119.44;5045696;28;20205;-90
2022/06/21 04:01:28;;;;;;;2.50;1.40;;;;;;;16.58;71.46;96126.03;5046258;28;20228;-90
2022/06/21 04:04:00;;;;;;;4.22;1.50;;;;;;;16.67;73.02;96114.06;5044934;28;20713;-90
2022/06/21 04:06:31;;;;;;;1.65;1.25;;;;;;;16.63;69.96;96102.25;5045631;28;20224;-92
2022/06/21 04:09:03;;;;;;;3.22;1.45;;;;;;;16.79;72.15;96107.84;5048383;28;20205;-91
2022/06/21 04:11:37;;;;;;;2.85;1.73;;;;;;;16.97;70.53;96125.69;5048416;28;20202;-90
2022/06/21 04:14:15;;;;;;;5.47;1.40;;;;;;;17.02;71.94;96120.50;5048646;28;20251;-91
2022/06/21 04:16:45;;;;;;;1.95;1.20;;;;;;;17.15;71.77;96116.69;5047702;28;20221;-92
2022/06/21 04:19:17;;;;;;;3.75;1.38;;;;;;;16.93;67.50;96116.50;5048531;28;20201;-91
2022/06/21 04:21:52;;;;;;;2.58;1.25;;;;;;;17.14;70.19;96131.06;5048107;28;20272;-91
2022/06/21 04:24:26;;;;;;;2.67;1.30;;;;;;;17.04;68.01;96126.44;5047731;28;20240;-91
2022/06/21 04:27:00;;;;;;;2.70;1.40;;;;;;;17.03;68.42;96119.50;5045711;28;20666;-92
2022/06/21 04:29:31;;;;;;;4.57;1.60;;;;;;;16.85;67.69;96124.78;5046182;28;20671;-90
2022/06/21 04:32:02;;;;;;;2.65;1.30;;;;;;;16.85;67.95;96114.13;5045581;28;20217;-89
2022/06/21 04:34:33;;;;;;;2.53;1.50;;;;;;;16.77;67.52;96115.22;5046508;28;20206;-90
2022/06/21 04:37:06;;;;;;;2.58;1.60;;;;;;;17.00;68.10;96103.97;5046058;28;20483;-91
2022/06/21 04:39:36;;;;;;;2.88;1.48;;;;;;;17.14;66.92;96107.09;5045600;28;20201;-91
2022/06/21 04:42:07;;;;;;;3.35;1.50;;;;;;;17.37;66.69;96112.59;5049468;28;20240;-92
2022/06/21 04:44:40;;;;;;;2.42;1.40;;;;;;;17.63;66.53;96120.31;5047709;28;20192;-92
2022/06/21 04:47:15;;;;;;;2.00;1.30;;;;;;;17.58;65.11;96122.00;5047232;28;20216;-90
2022/06/21 04:49:47;;;;;;;4.68;1.40;;;;;;;17.70;67.09;96114.91;5055520;28;20205;-91
2022/06/21 04:52:20;;;;;;;3.15;1.15;;;;;;;17.88;65.65;96111.19;5060028;28;20213;-90
2022/06/21 04:54:47;;;;;;;2.42;1.15;;;;;;;17.88;64.66;96111.19;5061390;28;20212;-89
2022/06/21 04:57:16;;;;;;;1.90;1.30;;;;;;;18.01;63.08;96127.00;5054985;28;20216;-89
2022/06/21 04:59:46;;;;;;;3.47;1.30;;;;;;;18.01;62.09;96120.84;5051938;28;20209;-91
2022/06/21 05:02:19;;;;;;;2.85;1.25;;;;;;;18.00;61.16;96119.25;5055236;28;20300;-92
2022/06/21 05:04:48;;;;;;;3.35;1.38;;;;;;;17.88;61.17;96127.19;5050046;28;20209;-89
2022/06/21 05:07:18;;;;;;;3.05;1.20;;;;;;;17.76;61.53;96130.81;5053701;28;20211;-89
2022/06/21 05:09:46;;;;;;;4.35;1.45;;;;;;;17.65;61.90;96123.56;5055948;28;20216;-90
2022/06/21 05:12:21;;;;;;;2.88;1.35;;;;;;;17.80;62.17;96121.34;5058953;28;20221;-91
2022/06/21 05:14:53;;;;;;;2.33;1.25;;;;;;;17.74;63.04;96116.88;5060177;28;20210;-90
2022/06/21 05:17:21;;;;;;;6.60;1.60;;;;;;;17.69;62.90;96115.94;5057455;28;20197;-90
2022/06/21 05:19:51;;;;;;;2.20;1.15;;;;;;;17.95;62.10;96117.25;5061204;28;20232;-91
2022/06/21 05:22:22;;;;;;;4.80;1.70;;;;;;;18.08;63.65;96105.59;5056883;28;20228;-91
2022/06/21 05:24:49;;;;;;;1.75;1.42;;;;;;;18.14;62.69;96110.00;5055328;28;20198;-91
2022/06/21 05:27:22;;;;;;;3.67;1.75;;;;;;;18.05;61.88;96106.03;5053225;28;20518;-89
2022/06/21 05:29:56;;;;;;;2.08;1.52;;;;;;;18.33;61.29;96103.59;5054228;28;20201;-90
2022/06/21 05:32:28;;;;;;;2.47;1.35;;;;;;;18.24;59.46;96107.63;5049758;28;20228;-91
2022/06/21 05:34:59;;;;;;;3.30;1.50;;;;;;;18.23;59.90;96106.00;5049718;28;20202;-90
2022/06/21 05:37:30;;;;;;;2.33;1.35;;;;;;;18.25;59.36;96111.94;5048560;28;20209;-89
2022/06/21 05:40:00;;;;;;;3.80;1.40;;;;;;;18.31;58.88;96103.03;5049151;28;20570;-90
2022/06/21 05:42:28;;;;;;;2.78;1.20;;;;;;;18.44;57.79;96115.16;5047915;28;20232;-87
2022/06/21 05:45:05;;;;;;;4.78;1.20;;;;;;;18.53;56.61;96115.63;5049996;28;20204;-90
2022/06/21 05:47:37;;;;;;;3.83;1.40;;;;;;;18.60;57.08;96117.16;5048574;28;20205;-90
2022/06/21 05:50:07;;;;;;;1.98;1.08;;;;;;;18.68;57.52;96113.34;5048869;28;20189;-91
2022/06/21 05:52:37;;;;;;;2.47;1.13;;;;;;;18.70;56.72;96112.06;5047769;28;20240;-91
2022/06/21 05:55:08;;;;;;;3.90;1.35;;;;;;;18.85;56.35;96122.28;5050760;28;20238;-90
2022/06/21 05:57:39;;;;;;;2.33;1.60;;;;;;;18.88;55.73;96114.63;5048581;28;20204;-91
2022/06/21 06:00:24;;;;;;;4.55;1.20;;;;;;;19.03;54.93;96107.00;5046174;28;20212;-90
2022/06/21 06:02:55;;;;;;;2.97;1.17;;;;;;;18.79;54.78;96101.84;5050003;28;20244;-90
2022/06/21 06:05:27;;;;;;;4.38;1.25;;;;;;;18.93;55.20;96101.41;5054825;28;20205;-89
2022/06/21 06:07:59;;;;;;;1.80;1.20;;;;;;;18.74;55.64;96097.22;5054639;28;20197;-88
2022/06/21 06:10:31;;;;;;;4.07;1.10;;;;;;;18.84;54.51;96089.44;5049791;28;20209;-90
2022/06/21 06:13:02;;;;;;;2.33;1.20;;;;;;;18.87;54.85;96091.66;5048594;28;20248;-90
2022/06/21 06:15:33;;;;;;;3.97;1.30;;;;;;;19.12;53.95;96084.25;5048790;28;20193;-88
2022/06/21 06:18:07;;;;;;;1.67;0.90;;;;;;;19.31;53.23;96091.06;5051172;28;20197;-88
2022/06/21 06:20:41;;;;;;;2.95;1.13;;;;;;;19.30;52.73;96095.63;5049818;28;20196;-89
2022/06/21 06:23:13;;;;;;;4.95;1.30;;;;;;;19.23;54.68;96096.78;5049115;28;20596;-88
2022/06/21 06:25:44;;;;;;;3.55;1.08;;;;;;;19.39;52.87;96093.41;5047797;28;20193;-88
2022/06/21 06:28:18;;;;;;;9.40;1.30;;;;;;;19.47;55.54;96095.72;5047737;28;20704;-89
2022/06/21 06:30:51;;;;;;;4.35;1.30;;;;;;;19.80;54.16;96094.81;5045448;28;20215;-89
2022/06/21 06:33:24;;;;;;;4.93;1.30;;;;;;;19.77;51.28;96100.66;5042499;28;20254;-89
2022/06/21 06:35:53;;;;;;;4.25;1.27;;;;;;;19.70;51.14;96091.97;5044135;28;20572;-88
2022/06/21 06:38:20;;;;;;;1.40;1.00;;;;;;;19.61;52.12;96100.56;5041269;28;20216;-87
2022/06/21 06:40:51;;;;;;;3.17;1.10;;;;;;;19.61;51.19;96095.22;5047880;28;20212;-89
2022/06/21 06:43:23;;;;;;;4.18;1.10;;;;;;;19.72;52.88;96092.53;5045440;28;20221;-89
2022/06/21 06:45:53;;;;;;;1.95;1.20;;;;;;;19.71;50.53;96100.78;5046898;28;20205;-88
2022/06/21 06:48:25;;;;;;;2.47;1.08;;;;;;;19.88;50.41;96104.34;5052947;28;20205;-90
2022/06/21 06:50:55;;;;;;;2.95;0.90;;;;;;;19.87;52.32;96114.22;5057506;28;20197;-88
2022/06/21 06:53:29;;;;;;;13.35;1.20;;;;;;;19.99;49.21;96109.69;5055131;28;20225;-89
2022/06/21 06:56:01;;;;;;;2.45;1.10;;;;;;;19.86;51.63;96115.28;5056343;28;20232;-90
2022/06/21 06:58:34;;;;;;;2.38;1.00;;;;;;;20.20;52.21;96117.88;5059332;28;20207;-89
2022/06/21 07:01:05;;;;;;;1.95;1.00;;;;;;;20.33;48.59;96114.09;5055751;28;20205;-90
2022/06/21 07:03:36;;;;;;;1.35;0.95;;;;;;;20.31;49.40;96119.69;5055303;28;20229;-86
2022/06/21 07:06:07;;;;;;;1.50;1.00;;;;;;;20.57;49.54;96115.59;5058674;28;20295;-88
2022/06/21 07:08:40;;;;;;;2.30;1.02;;;;;;;20.47;49.83;96113.56;5059269;28;20178;-87
2022/06/21 07:11:14;;;;;;;3.17;1.40;;;;;;;20.47;47.36;96123.47;5055446;28;20201;-92
2022/06/21 07:13:42;;;;;;;1.40;1.00;;;;;;;20.72;48.37;96111.34;5055544;28;20221;-88
2022/06/21 07:16:15;;;;;;;2.30;1.13;;;;;;;21.06;48.34;96100.38;5058246;28;20197;-91
2022/06/21 07:18:47;;;;;;;4.25;1.10;;;;;;;20.97;51.14;96095.69;5057616;28;20205;-89
2022/06/21 07:21:14;;;;;;;2.03;1.10;;;;;;;21.10;47.81;96106.06;5059255;28;20300;-90
2022/06/21 07:23:42;;;;;;;5.55;1.27;;;;;;;20.68;46.41;96099.44;5053956;28;20715;-89
2022/06/21 07:26:15;;;;;;;2.38;1.00;;;;;;;21.00;46.39;96101.38;5054730;28;20184;-88
2022/06/21 07:28:46;;;;;;;3.65;1.23;;;;;;;21.15;45.90;96096.22;5055914;28;20201;-87
2022/06/21 07:31:19;;;;;;;2.53;1.08;;;;;;;21.30;46.92;96103.69;5051278;28;20225;-92
2022/06/21 07:33:51;;;;;;;2.25;1.00;;;;;;;21.43;47.93;96104.16;5057000;28;20222;-89
2022/06/21 07:36:22;;;;;;;2.00;1.17;;;;;;;21.63;47.99;96110.63;5054682;28;20208;-91
2022/06/21 07:38:52;;;;;;;1.73;1.00;;;;;;;21.67;47.93;96117.13;5050834;28;20204;-91
2022/06/21 07:41:24;;;;;;;3.00;1.00;;;;;;;21.73;46.50;96107.28;5056172;28;20205;-88
2022/06/21 07:43:57;;;;;;;2.22;1.20;;;;;;;21.94;47.88;96106.47;5056249;28;20236;-90
2022/06/21 07:46:30;;;;;;;4.18;0.95;;;;;;;21.94;46.76;96107.28;5055938;28;20224;-91
2022/06/21 07:49:04;;;;;;;5.55;1.02;;;;;;;21.92;45.61;96097.84;5058392;28;20208;-91
2022/06/21 07:51:35;;;;;;;8.32;1.40;;;;;;;21.80;46.19;96089.13;5055766;28;20194;-89
2022/06/21 07:54:07;;;;;;;6.43;1.10;;;;;;;21.64;45.66;96093.50;5052038;28;20225;-91
2022/06/21 07:56:39;;;;;;;4.70;1.13;;;;;;;22.04;46.89;96101.22;5054385;28;20905;-89
2022/06/21 07:59:15;;;;;;;3.78;1.30;;;;;;;22.31;46.48;96108.28;5055549;28;20197;-87
2022/06/21 08:07:23;;;;;;;5.20;1.20;;;;;;;22.72;48.82;96105.72;5053167;28;20209;-89
2022/06/21 08:09:54;;;;;;;3.60;1.48;;;;;;;22.95;46.56;96110.75;5053199;28;20205;-88
2022/06/21 08:12:20;;;;;;;2.95;1.30;;;;;;;22.67;45.43;96116.44;5054371;28;20221;-88
2022/06/21 08:14:47;;;;;;;4.35;1.33;;;;;;;22.49;45.22;96106.06;5055832;28;20632;-89
2022/06/21 08:17:25;;;;;;;3.05;1.60;;;;;;;22.77;46.36;96109.28;5055106;28;20197;-89
2022/06/21 08:19:58;;;;;;;2.25;1.20;;;;;;;22.66;47.53;96117.50;5053931;28;20210;-90
2022/06/21 08:22:30;;;;;;;5.20;1.50;;;;;;;22.73;48.27;96118.09;5047084;28;20229;-89
2022/06/21 08:24:59;;;;;;;2.88;1.45;;;;;;;23.00;46.75;96124.28;5049560;28;20467;-88
2022/06/21 08:27:37;;;;;;;4.47;1.40;;;;;;;22.94;45.19;96120.72;5056741;28;20212;-89
2022/06/21 08:30:11;;;;;;;4.78;1.60;;;;;;;22.95;45.66;96114.28;5054632;28;20200;-88
2022/06/21 08:32:48;;;;;;;2.10;1.42;;;;;;;22.95;46.60;96108.09;5049864;28;20228;-91
2022/06/21 08:35:21;;;;;;;2.95;1.25;;;;;;;23.38;46.41;96100.63;5060044;28;20208;-90
2022/06/21 08:37:53;;;;;;;5.63;1.40;;;;;;;23.48;45.03;96096.13;5047836;28;20208;-88
2022/06/21 08:41:00;;;;;;;4.30;1.60;;;;;;;23.27;46.29;96092.75;5049587;28;20224;-90
2022/06/21 08:44:01;;;;;;;16.15;2.00;;;;;;;23.29;45.75;96096.03;5050733;28;20225;-89
2022/06/21 08:47:00;;;;;;;5.35;1.73;;;;;;;23.09;46.06;96096.69;5042164;28;20212;-90
2022/06/21 08:50:26;;;;;;;4.40;1.58;;;;;;;23.36;46.83;96092.03;5048413;28;20206;-89
2022/06/21 08:53:06;;;;;;;5.65;1.92;;;;;;;23.31;48.11;96094.69;4966213;28;20234;-89
2022/06/21 08:55:43;;;;;;;6.10;1.95;;;;;;;23.06;48.20;96101.75;4977824;28;20196;-88
2022/06/21 08:58:22;;;;;;;3.63;1.90;;;;;;;23.76;47.78;96087.72;5038658;28;20208;-90
2022/06/21 09:00:54;;;;;;;4.10;1.60;;;;;;;23.59;48.76;96092.44;5051093;28;20193;-88
2022/06/21 09:03:37;;;;;;;6.97;1.90;;;;;;;23.41;47.19;96094.75;5055926;28;20235;-89
2022/06/21 09:06:17;;;;;;;5.28;1.98;;;;;;;23.53;49.91;96074.63;5052467;28;20713;-89
2022/06/21 09:09:16;;;;;;;3.28;1.80;;;;;;;23.78;48.22;96065.91;5048036;28;20205;-88
2022/06/21 09:11:52;;;;;;;3.58;1.80;;;;;;;23.61;48.14;96066.09;5047358;28;20216;-90
2022/06/21 09:14:48;;;;;;;5.50;1.95;;;;;;;23.56;50.01;96071.44;5050329;28;20208;-91
2022/06/21 09:17:22;;;;;;;3.53;1.65;;;;;;;23.32;49.59;96061.34;5043109;28;20212;-88
2022/06/21 09:20:03;;;;;;;4.75;1.88;;;;;;;23.99;50.00;96071.13;5053750;28;20205;-89
2022/06/21 09:22:39;;;;;;;2.78;1.80;;;;;;;23.92;47.78;96067.88;5057858;28;20235;-87
2022/06/21 09:25:16;;;;;;;3.80;2.05;;;;;;;23.47;49.14;96073.00;5053295;28;20207;-89
2022/06/21 09:27:48;;;;;;;4.80;1.98;;;;;;;24.16;49.28;96090.56;5055176;28;20288;-88
2022/06/21 09:30:18;;;;;;;5.05;1.80;;;;;;;24.14;51.30;96085.44;5057390;28;20811;-88
2022/06/21 09:32:55;;;;;;;3.60;2.20;;;;;;;24.06;47.39;96071.69;5056852;28;20221;-89
2022/06/21 09:35:31;;;;;;;3.20;2.00;;;;;;;23.69;48.27;96057.56;5053896;28;20197;-91
2022/06/21 09:38:11;;;;;;;3.65;2.05;;;;;;;23.55;47.65;96059.06;5054096;28;20205;-92
2022/06/21 09:40:46;;;;;;;3.60;2.20;;;;;;;23.22;49.22;96060.47;5052050;28;20240;-88
2022/06/21 09:43:22;;;;;;;6.53;2.03;;;;;;;23.38;49.97;96057.59;5048843;28;20221;-89
2022/06/21 09:45:59;;;;;;;3.13;2.38;;;;;;;23.55;48.85;96058.25;5049144;28;20201;-89
2022/06/21 09:48:36;;;;;;;4.68;2.25;;;;;;;23.84;48.16;96049.56;5047059;28;20201;-90
2022/06/21 09:51:12;;;;;;;4.13;2.15;;;;;;;24.21;47.21;96059.09;5050255;28;20205;-89
2022/06/21 09:53:47;;;;;;;4.25;2.28;;;;;;;24.49;48.20;96044.34;5050331;28;20647;-89
2022/06/21 09:56:26;;;;;;;7.40;2.28;;;;;;;24.29;50.10;96038.91;5051632;28;20503;-89
2022/06/21 09:59:01;;;;;;;6.22;2.22;;;;;;;24.60;48.89;96026.06;5049958;28;20205;-89
2022/06/21 10:01:37;;;;;;;9.07;2.42;;;;;;;24.48;47.18;96035.47;5052190;28;20193;-90
2022/06/21 10:04:18;;;;;;;6.40;2.50;;;;;;;24.42;47.12;96043.81;5053514;28;20576;-91
2022/06/21 10:06:52;;;;;;;2.92;2.00;;;;;;;24.74;48.40;96037.88;5056988;28;20197;-89
2022/06/21 10:09:32;;;;;;;4.97;2.42;;;;;;;24.62;50.03;96040.06;5054553;28;20468;-88
2022/06/21 10:12:11;;;;;;;3.30;2.22;;;;;;;24.49;48.18;96039.78;5048499;28;20428;-90
2022/06/21 10:14:52;;;;;;;3.92;2.22;;;;;;;24.42;50.86;96043.81;5053129;28;20374;-89
2022/06/21 10:17:42;;;;;;;5.57;2.60;;;;;;;24.65;48.90;96038.72;5053665;28;20208;-91
2022/06/21 10:20:31;;;;;;;6.18;2.42;;;;;;;25.04;49.77;96037.06;5057108;28;20205;-91
2022/06/21 10:23:10;;;;;;;5.95;2.60;;;;;;;25.12;48.25;96048.16;5057242;28;20335;-88
2022/06/21 10:25:50;;;;;;;5.63;2.33;;;;;;;25.17;47.33;96054.34;5053193;28;20189;-89
2022/06/21 10:28:35;;;;;;;5.43;2.65;;;;;;;25.24;48.78;96043.28;5060469;28;20185;-91
2022/06/21 10:31:27;;;;;;;5.03;2.20;;;;;;;25.51;48.99;96027.56;5061305;28;20954;-91
2022/06/21 10:34:22;;;;;;;4.03;2.08;;;;;;;25.61;46.83;96016.75;5060395;28;20220;-92
2022/06/21 10:37:01;;;;;;;4.70;2.05;;;;;;;25.68;49.69;96022.69;5055635;28;20213;-90
2022/06/21 10:39:48;;;;;;;3.75;2.30;;;;;;;26.12;47.15;96032.47;5057053;28;20201;-89
2022/06/21 10:42:47;;;;;;;3.33;2.08;;;;;;;25.97;46.95;96019.88;5057268;28;20227;-92
2022/06/21 10:45:33;;;;;;;5.05;2.13;;;;;;;26.23;47.47;96023.25;5061372;28;20212;-89
2022/06/21 10:48:31;;;;;;;5.20;2.28;;;;;;;26.32;49.87;96024.28;5061087;28;20231;-89
2022/06/21 10:51:08;;;;;;;4.97;2.33;;;;;;;26.78;46.45;96023.69;5060743;28;20330;-92
2022/06/21 10:53:51;;;;;;;3.55;2.20;;;;;;;26.81;45.38;96023.16;5055875;28;20232;-87
2022/06/21 10:59:25;;;;;;;6.18;2.65;;;;;;;26.84;45.48;96011.75;5056193;28;20204;-89
2022/06/21 11:01:59;;;;;;;5.47;2.58;;;;;;;27.10;45.62;96003.97;5059537;28;20185;-89
2022/06/21 11:04:46;;;;;;;7.00;2.53;;;;;;;27.38;44.21;96003.16;5059283;28;20260;-89
2022/06/21 11:07:22;;;;;;;5.45;2.33;;;;;;;27.44;44.53;96006.59;5062060;28;20654;-90
2022/06/21 11:09:56;;;;;;;6.03;2.30;;;;;;;27.39;45.59;96001.22;5059108;28;20219;-91
2022/06/21 11:15:27;;;;;;;4.30;2.22;;;;;;;27.57;45.31;96003.22;5058433;28;20294;-88
2022/06/21 11:18:18;;;;;;;4.72;2.63;;;;;;;27.39;45.07;95988.53;5051537;28;20201;-90
2022/06/21 11:20:56;;;;;;;5.80;2.50;;;;;;;28.14;44.84;95985.69;5056866;28;20177;-88
2022/06/21 11:23:33;;;;;;;3.60;2.38;;;;;;;28.36;44.84;95981.34;5058140;28;20569;-90
2022/06/21 11:26:08;;;;;;;3.20;2.30;;;;;;;27.99;44.03;95982.38;5053133;28;20197;-92
2022/06/21 11:28:44;;;;;;;5.68;2.50;;;;;;;27.98;45.36;95992.44;5055778;28;20211;-93
2022/06/21 11:31:21;;;;;;;4.88;2.35;;;;;;;27.56;45.52;95983.50;5055163;28;20503;-91
2022/06/21 11:33:58;;;;;;;5.07;2.58;;;;;;;27.17;47.01;95990.91;5052660;28;20227;-89
2022/06/21 11:36:33;;;;;;;5.22;2.60;;;;;;;26.60;48.51;95989.22;5053793;28;20207;-89
2022/06/21 11:39:12;;;;;;;4.43;2.30;;;;;;;27.23;48.95;95978.94;5054089;28;20213;-90
2022/06/21 11:42:05;;;;;;;7.60;2.67;;;;;;;27.13;47.44;95980.94;5054513;28;20205;-89
2022/06/21 11:44:53;;;;;;;5.40;2.38;;;;;;;27.11;48.30;95981.25;5049782;28;20213;-90
2022/06/21 11:47:35;;;;;;;8.13;2.88;;;;;;;28.22;45.68;95986.97;5049798;28;20201;-91
2022/06/21 11:50:12;;;;;;;4.70;2.70;;;;;;;28.04;45.92;95985.03;5050264;28;20193;-94
2022/06/21 11:53:13;;;;;;;5.90;2.90;;;;;;;27.36;46.60;95967.44;5049828;28;20228;-91
2022/06/21 11:55:44;;;;;;;5.68;3.00;;;;;;;26.93;47.43;95947.84;5051836;28;20200;-92
2022/06/21 11:58:27;;;;;;;4.70;2.70;;;;;;;26.57;49.25;95881.69;5049824;28;20227;-91
2022/06/21 12:00:59;;;;;;;5.65;3.17;;;;;;;26.57;49.60;95878.97;5051341;28;20200;-89
2022/06/21 12:03:36;;;;;;;7.30;3.17;;;;;;;26.97;49.45;95913.75;5055176;28;21078;-93
2022/06/21 12:06:10;;;;;;;4.97;3.28;;;;;;;27.46;50.11;95918.59;5052941;28;20292;-91
2022/06/21 12:08:43;;;;;;;4.60;3.00;;;;;;;27.33;47.41;95923.88;5050626;28;20197;-91
2022/06/21 12:11:15;;;;;;;6.78;3.10;;;;;;;27.61;47.66;95925.75;5055965;28;20213;-90
2022/06/21 12:13:52;;;;;;;6.68;3.03;;;;;;;27.47;48.17;95920.22;5054954;28;20213;-92
2022/06/21 12:16:33;;;;;;;5.47;3.10;;;;;;;27.56;47.58;95910.38;5054227;28;20204;-92
2022/06/21 12:19:03;;;;;;;5.93;3.17;;;;;;;27.86;47.14;95923.50;5052920;28;20520;-90